createdAt,value
2019-03-31T00:02:24.056Z,154.55
2019-03-31T00:04:57.815Z,146.32
2019-03-31T00:07:31.582Z,160.18
2019-03-31T00:10:05.772Z,146.77
2019-03-31T00:12:39.475Z,138.72
2019-03-31T00:15:13.570Z,146.87
2019-03-31T00:17:47.175Z,141.05
2019-03-31T00:20:20.839Z,138.37
2019-03-31T00:22:54.492Z,134.70
2019-03-31T00:25:28.771Z,131.35
2019-03-31T00:28:02.475Z,134.07
2019-03-31T00:30:36.153Z,142.57
2019-03-31T00:33:09.781Z,150.42
2019-03-31T00:35:43.424Z,151.60
2019-03-31T00:38:17.144Z,160.12
2019-03-31T00:40:50.870Z,141.17
2019-03-31T00:43:24.585Z,131.93
2019-03-31T00:45:58.185Z,140.10
2019-03-31T00:48:33.343Z,132.55
2019-03-31T00:51:06.995Z,126.45
2019-03-31T00:53:40.599Z,128.30
2019-03-31T00:56:14.276Z,131.27
2019-03-31T00:58:47.947Z,121.55
2019-03-31T01:01:36.435Z,131.72
2019-03-31T01:04:05.401Z,136.07
2019-03-31T01:06:39.494Z,120.00
2019-03-31T01:09:32.588Z,130.60
2019-03-31T01:12:07.463Z,117.17
2019-03-31T01:14:41.449Z,132.37
2019-03-31T01:17:18.667Z,118.70
2019-03-31T01:19:53.335Z,126.12
2019-03-31T01:22:27.867Z,138.40
2019-03-31T01:25:01.696Z,121.33
2019-03-31T01:27:37.593Z,131.55
2019-03-31T01:30:12.757Z,124.72
2019-03-31T01:32:46.797Z,120.20
2019-03-31T01:35:21.232Z,133.25
2019-03-31T01:37:55.144Z,106.52
2019-03-31T01:40:29.268Z,115.37
2019-03-31T01:43:02.913Z,112.03
2019-03-31T01:45:36.939Z,117.05
2019-03-31T01:48:11.681Z,119.57
2019-03-31T01:50:45.593Z,120.97
2019-03-31T01:53:19.386Z,127.02
2019-03-31T01:55:53.008Z,122.62
2019-03-31T01:58:26.651Z,122.58
2019-03-31T02:01:01.789Z,101.55
2019-03-31T02:03:35.603Z,104.15
2019-03-31T02:06:09.406Z,109.15
2019-03-31T02:08:43.214Z,96.08
2019-03-31T02:11:17.802Z,104.20
2019-03-31T02:13:51.496Z,105.72
2019-03-31T02:16:26.684Z,98.00
2019-03-31T02:19:00.398Z,100.42
2019-03-31T02:21:34.818Z,107.33
2019-03-31T02:24:08.470Z,97.47
2019-03-31T02:26:42.091Z,91.75
2019-03-31T02:29:15.793Z,102.00
2019-03-31T02:31:49.429Z,98.35
2019-03-31T02:34:23.041Z,99.28
2019-03-31T02:36:56.735Z,105.43
2019-03-31T02:39:32.002Z,112.75
2019-03-31T02:42:05.901Z,95.85
2019-03-31T02:44:39.571Z,109.40
2019-03-31T02:47:13.296Z,106.25
2019-03-31T02:49:47.055Z,109.57
2019-03-31T02:52:20.663Z,109.67
2019-03-31T02:54:54.407Z,102.02
2019-03-31T02:57:28.747Z,105.40
2019-03-31T03:00:04.273Z,94.42
2019-03-31T03:02:42.559Z,98.73
2019-03-31T03:05:19.876Z,114.97
2019-03-31T03:07:51.576Z,111.75
2019-03-31T03:10:27.476Z,132.70
2019-03-31T03:13:04.058Z,119.17
2019-03-31T03:15:50.203Z,107.30
2019-03-31T03:18:23.878Z,96.63
2019-03-31T03:20:57.507Z,75.30
2019-03-31T03:23:31.167Z,78.85
2019-03-31T03:26:05.018Z,85.12
2019-03-31T03:28:38.676Z,77.08
2019-03-31T03:31:15.773Z,79.17
2019-03-31T03:33:49.012Z,83.00
2019-03-31T03:36:22.633Z,77.42
2019-03-31T03:38:56.456Z,77.35
2019-03-31T03:41:30.224Z,81.90
2019-03-31T03:44:03.880Z,84.45
2019-03-31T03:46:37.513Z,72.80
2019-03-31T03:49:11.519Z,68.60
2019-03-31T03:51:45.497Z,69.25
2019-03-31T03:54:19.208Z,66.28
2019-03-31T03:56:52.907Z,73.65
2019-03-31T03:59:26.791Z,72.95
2019-03-31T04:02:00.513Z,68.25
2019-03-31T04:04:34.556Z,68.67
2019-03-31T04:07:08.274Z,69.37
2019-03-31T04:09:41.893Z,67.30
2019-03-31T04:12:15.626Z,63.08
2019-03-31T04:14:49.598Z,70.28
2019-03-31T04:17:23.277Z,65.75
2019-03-31T04:19:57.101Z,69.25
2019-03-31T04:22:30.761Z,66.00
2019-03-31T04:25:04.623Z,75.55
2019-03-31T04:27:38.394Z,72.62
2019-03-31T04:30:12.147Z,66.25
2019-03-31T04:32:45.950Z,67.17
2019-03-31T04:35:19.788Z,72.25
2019-03-31T04:37:53.509Z,69.82
2019-03-31T04:40:27.263Z,71.92
2019-03-31T04:43:00.936Z,66.35
2019-03-31T04:45:34.722Z,63.87
2019-03-31T04:48:08.329Z,58.63
2019-03-31T04:50:43.541Z,60.38
2019-03-31T04:53:17.665Z,56.13
2019-03-31T04:55:51.355Z,56.98
2019-03-31T04:58:25.027Z,60.65
2019-03-31T05:00:58.863Z,54.55
2019-03-31T05:03:32.569Z,54.80
2019-03-31T05:06:06.246Z,53.90
2019-03-31T05:08:39.984Z,53.23
2019-03-31T05:11:13.686Z,53.15
2019-03-31T05:13:47.490Z,55.48
2019-03-31T05:16:21.226Z,56.40
2019-03-31T05:18:54.955Z,59.08
2019-03-31T05:21:28.627Z,55.63
2019-03-31T05:24:02.379Z,50.92
2019-03-31T05:26:36.282Z,52.05
2019-03-31T05:29:10.405Z,55.85
2019-03-31T05:31:44.087Z,51.68
2019-03-31T05:34:19.283Z,51.77
2019-03-31T05:36:53.441Z,51.63
2019-03-31T05:39:29.055Z,55.95
2019-03-31T05:42:03.098Z,54.40
2019-03-31T05:44:37.854Z,55.25
2019-03-31T05:47:11.681Z,54.53
2019-03-31T05:49:45.524Z,58.17
2019-03-31T05:52:19.331Z,52.75
2019-03-31T05:54:52.967Z,53.92
2019-03-31T05:57:26.595Z,59.83
2019-03-31T06:00:00.544Z,53.80
2019-03-31T06:02:34.511Z,59.10
2019-03-31T06:05:09.250Z,50.15
2019-03-31T06:07:43.017Z,45.78
2019-03-31T06:10:16.791Z,51.02
2019-03-31T06:12:50.559Z,47.33
2019-03-31T06:15:24.374Z,56.90
2019-03-31T06:17:58.300Z,50.92
2019-03-31T06:20:33.788Z,55.38
2019-03-31T06:23:07.456Z,54.53
2019-03-31T06:25:41.093Z,55.78
2019-03-31T06:28:14.766Z,53.83
2019-03-31T06:30:48.497Z,55.05
2019-03-31T06:33:22.098Z,52.40
2019-03-31T06:35:55.756Z,57.90
2019-03-31T06:38:29.299Z,52.05
2019-03-31T06:41:04.041Z,58.87
2019-03-31T06:43:37.749Z,51.28
2019-03-31T06:46:12.507Z,50.63
2019-03-31T06:48:46.415Z,42.93
2019-03-31T06:51:21.231Z,42.95
2019-03-31T06:53:54.997Z,47.43
2019-03-31T06:56:28.817Z,47.95
2019-03-31T06:59:02.609Z,47.60
2019-03-31T07:01:36.559Z,51.60
2019-03-31T07:04:10.233Z,43.87
2019-03-31T07:06:44.029Z,44.83
2019-03-31T07:09:17.919Z,53.83
2019-03-31T07:11:51.697Z,46.65
2019-03-31T07:14:25.538Z,47.13
2019-03-31T07:16:59.425Z,53.15
2019-03-31T07:19:33.108Z,41.33
2019-03-31T07:22:06.795Z,50.03
2019-03-31T07:24:40.489Z,58.13
2019-03-31T07:27:14.222Z,53.75
2019-03-31T07:29:47.988Z,52.50
2019-03-31T07:32:21.905Z,54.73
2019-03-31T07:34:55.720Z,41.05
2019-03-31T07:37:29.833Z,51.53
2019-03-31T07:40:12.063Z,52.43
2019-03-31T07:42:50.873Z,56.65
2019-03-31T07:45:23.733Z,51.75
2019-03-31T07:47:57.568Z,39.92
2019-03-31T07:50:31.587Z,41.80
2019-03-31T07:53:07.231Z,46.05
2019-03-31T07:55:42.822Z,47.48
2019-03-31T07:58:20.956Z,51.23
2019-03-31T08:00:57.581Z,55.17
2019-03-31T08:03:34.470Z,50.83
2019-03-31T08:06:13.087Z,48.25
2019-03-31T08:08:53.238Z,57.65
2019-03-31T08:11:33.635Z,44.95
2019-03-31T08:14:10.220Z,44.25
2019-03-31T08:16:45.618Z,43.35
2019-03-31T08:19:22.626Z,52.75
2019-03-31T08:21:57.739Z,45.70
2019-03-31T08:24:43.423Z,46.45
2019-03-31T08:27:19.517Z,43.65
2019-03-31T08:30:00.334Z,47.85
2019-03-31T08:32:35.614Z,42.03
2019-03-31T08:35:12.311Z,31.77
2019-03-31T08:37:52.543Z,41.50
2019-03-31T08:40:26.461Z,37.23
2019-03-31T08:43:06.483Z,41.18
2019-03-31T08:45:45.345Z,38.28
2019-03-31T08:48:28.339Z,43.70
2019-03-31T08:51:04.518Z,45.55
2019-03-31T08:53:39.750Z,41.65
2019-03-31T08:56:17.833Z,38.55
2019-03-31T08:58:51.652Z,29.15
2019-03-31T09:01:25.736Z,36.55
2019-03-31T09:04:07.085Z,33.63
2019-03-31T09:06:42.196Z,33.33
2019-03-31T09:09:16.223Z,32.28
2019-03-31T09:11:50.091Z,43.45
2019-03-31T09:14:30.759Z,49.77
2019-03-31T09:17:06.999Z,47.88
2019-03-31T09:19:44.763Z,53.75
2019-03-31T09:22:21.654Z,42.05
2019-03-31T09:24:58.465Z,40.20
2019-03-31T09:27:34.134Z,52.80
2019-03-31T09:30:12.060Z,37.60
2019-03-31T09:32:47.393Z,43.90
2019-03-31T09:35:23.191Z,40.58
2019-03-31T09:38:01.161Z,37.83
2019-03-31T09:40:40.222Z,41.48
2019-03-31T09:43:15.449Z,48.02
2019-03-31T09:45:51.995Z,48.20
2019-03-31T09:48:29.328Z,45.38
2019-03-31T09:51:06.039Z,42.33
2019-03-31T09:53:43.416Z,42.62
2019-03-31T09:56:19.149Z,35.20
2019-03-31T09:58:57.314Z,38.15
2019-03-31T10:01:33.681Z,50.33
2019-03-31T10:04:07.448Z,47.30
2019-03-31T10:06:41.382Z,42.45
2019-03-31T10:09:15.128Z,29.18
2019-03-31T10:11:52.428Z,41.35
2019-03-31T10:14:26.177Z,32.48
2019-03-31T10:17:00.908Z,28.80
2019-03-31T10:19:35.720Z,28.27
2019-03-31T10:22:09.433Z,26.17
2019-03-31T10:24:43.082Z,24.07
2019-03-31T10:27:16.744Z,25.12
2019-03-31T10:29:50.414Z,29.12
2019-03-31T10:32:24.016Z,25.27
2019-03-31T10:34:57.818Z,24.35
2019-03-31T10:37:31.577Z,25.80
2019-03-31T10:40:11.747Z,29.30
2019-03-31T10:42:45.550Z,26.77
2019-03-31T10:45:19.501Z,25.75
2019-03-31T10:47:53.273Z,25.68
2019-03-31T10:50:27.344Z,30.57
2019-03-31T10:53:01.225Z,23.30
2019-03-31T10:55:42.798Z,25.30
2019-03-31T10:58:21.986Z,22.32
2019-03-31T11:00:58.606Z,26.85
2019-03-31T11:03:33.234Z,22.05
2019-03-31T11:06:11.652Z,26.33
2019-03-31T11:08:48.226Z,22.07
2019-03-31T11:11:22.051Z,23.42
2019-03-31T11:13:56.251Z,21.62
2019-03-31T11:16:29.930Z,21.52
2019-03-31T11:19:05.524Z,23.70
2019-03-31T11:21:52.834Z,20.05
2019-03-31T11:24:26.832Z,21.30
2019-03-31T11:27:07.188Z,16.32
2019-03-31T11:29:58.708Z,16.60
2019-03-31T11:32:32.830Z,19.75
2019-03-31T11:35:06.627Z,18.98
2019-03-31T11:37:40.518Z,15.88
2019-03-31T11:40:16.048Z,19.30
2019-03-31T11:42:53.458Z,19.55
2019-03-31T11:45:27.172Z,17.70
2019-03-31T11:48:03.282Z,19.75
2019-03-31T11:50:37.213Z,18.00
2019-03-31T11:53:17.088Z,21.30
2019-03-31T11:55:50.826Z,19.98
2019-03-31T11:58:24.701Z,22.13
2019-03-31T12:00:58.503Z,21.77
2019-03-31T12:03:32.303Z,20.15
2019-03-31T12:06:06.011Z,18.12
2019-03-31T12:08:41.323Z,22.80
2019-03-31T12:11:15.211Z,17.75
2019-03-31T12:13:49.017Z,21.70
2019-03-31T12:16:22.771Z,12.88
2019-03-31T12:18:56.409Z,15.32
2019-03-31T12:21:30.277Z,19.45
2019-03-31T12:24:04.001Z,11.05
2019-03-31T12:26:37.745Z,13.68
2019-03-31T12:29:17.287Z,12.35
2019-03-31T12:31:54.551Z,15.45
2019-03-31T12:34:28.463Z,12.98
2019-03-31T12:37:02.314Z,12.28
2019-03-31T12:39:38.183Z,9.15
2019-03-31T12:42:12.005Z,13.43
2019-03-31T12:44:45.964Z,10.10
2019-03-31T12:47:19.841Z,13.10
2019-03-31T12:49:55.169Z,11.38
2019-03-31T12:52:46.140Z,12.82
2019-03-31T12:55:08.799Z,13.85
2019-03-31T12:57:44.475Z,9.98
2019-03-31T13:00:18.754Z,8.05
2019-03-31T13:02:58.003Z,17.90
2019-03-31T13:05:34.746Z,11.88
2019-03-31T13:08:36.300Z,10.55
2019-03-31T13:11:15.497Z,7.62
2019-03-31T13:13:50.933Z,9.43
2019-03-31T13:16:27.413Z,12.65
2019-03-31T13:19:01.414Z,11.43
2019-03-31T13:21:35.429Z,11.57
2019-03-31T13:24:11.858Z,12.20
2019-03-31T13:27:03.959Z,9.68
2019-03-31T13:29:42.982Z,10.08
2019-03-31T13:32:16.871Z,12.33
2019-03-31T13:34:50.960Z,9.83
2019-03-31T13:37:24.631Z,10.58
2019-03-31T13:39:58.401Z,15.78
2019-03-31T13:42:32.200Z,12.13
2019-03-31T13:45:10.045Z,9.53
2019-03-31T13:47:43.826Z,11.65
2019-03-31T13:50:19.857Z,16.62
2019-03-31T13:52:53.586Z,14.13
2019-03-31T13:55:27.231Z,16.23
2019-03-31T13:58:03.428Z,11.55
2019-03-31T14:00:42.826Z,11.60
2019-03-31T14:03:16.750Z,9.93
2019-03-31T14:05:50.523Z,11.25
2019-03-31T14:08:26.035Z,10.98
2019-03-31T14:10:59.627Z,14.23
2019-03-31T14:13:33.409Z,12.50
2019-03-31T14:16:07.238Z,13.15
2019-03-31T14:18:40.995Z,18.80
2019-03-31T14:21:14.827Z,13.58
2019-03-31T14:23:48.530Z,8.30
2019-03-31T14:26:22.133Z,11.03
2019-03-31T14:28:55.809Z,9.13
2019-03-31T14:31:29.577Z,8.55
2019-03-31T14:34:03.340Z,10.45
2019-03-31T14:36:39.981Z,10.30
2019-03-31T14:39:17.014Z,10.72
2019-03-31T14:41:49.487Z,12.45
2019-03-31T14:44:43.442Z,8.93
2019-03-31T14:47:17.183Z,9.08
2019-03-31T14:49:51.063Z,12.10
2019-03-31T14:52:27.668Z,17.02
2019-03-31T14:55:00.533Z,13.15
2019-03-31T14:57:34.262Z,15.25
2019-03-31T15:00:15.071Z,10.60
2019-03-31T15:02:44.995Z,10.35
2019-03-31T15:05:21.696Z,15.98
2019-03-31T15:07:58.325Z,10.28
2019-03-31T15:10:31.100Z,13.80
2019-03-31T15:13:06.030Z,12.70
2019-03-31T15:15:39.880Z,12.10
2019-03-31T15:18:13.535Z,15.90
2019-03-31T15:20:47.320Z,13.38
2019-03-31T15:23:29.020Z,11.55
2019-03-31T15:25:56.403Z,14.85
2019-03-31T15:28:30.108Z,12.53
2019-03-31T15:31:04.856Z,18.77
2019-03-31T15:33:38.508Z,14.05
2019-03-31T15:36:12.233Z,9.00
2019-03-31T15:38:45.938Z,9.68
2019-03-31T15:41:21.286Z,8.08
2019-03-31T15:43:55.098Z,9.95
2019-03-31T15:46:28.785Z,12.75
2019-03-31T15:49:02.495Z,12.55
2019-03-31T15:51:36.523Z,6.70
2019-03-31T15:54:10.265Z,10.18
2019-03-31T15:56:44.219Z,8.35
2019-03-31T15:59:17.955Z,10.95
2019-03-31T16:01:51.632Z,8.98
2019-03-31T16:04:25.374Z,7.55
2019-03-31T16:06:59.362Z,8.00
2019-03-31T16:09:32.286Z,6.60
2019-03-31T16:12:05.545Z,8.13
2019-03-31T16:14:38.629Z,7.17
2019-03-31T16:17:11.780Z,6.30
2019-03-31T16:19:44.705Z,5.95
2019-03-31T16:22:17.647Z,8.18
2019-03-31T16:24:52.321Z,9.73
2019-03-31T16:27:25.162Z,14.93
2019-03-31T16:29:58.056Z,6.58
2019-03-31T16:32:30.846Z,6.83
2019-03-31T16:35:03.744Z,8.03
2019-03-31T16:37:36.572Z,6.22
2019-03-31T16:40:09.409Z,9.15
2019-03-31T16:42:42.267Z,5.95
2019-03-31T16:45:15.229Z,7.28
2019-03-31T16:47:48.234Z,7.95
2019-03-31T16:50:21.228Z,17.40
2019-03-31T16:52:54.136Z,5.42
2019-03-31T16:55:27.373Z,10.30
2019-03-31T16:58:00.566Z,3.67
2019-03-31T17:00:34.736Z,12.68
2019-03-31T17:03:07.861Z,6.83
2019-03-31T17:05:40.672Z,6.95
2019-03-31T17:08:13.457Z,12.88
2019-03-31T17:10:46.394Z,7.70
2019-03-31T17:13:19.203Z,7.33
2019-03-31T17:15:52.115Z,8.40
2019-03-31T17:18:24.934Z,10.32
2019-03-31T17:20:57.789Z,5.72
2019-03-31T17:23:30.652Z,9.43
2019-03-31T17:26:03.631Z,8.23
2019-03-31T17:28:36.526Z,6.55
2019-03-31T17:31:09.743Z,8.58
2019-03-31T17:33:42.539Z,10.18
2019-03-31T17:36:15.426Z,10.50
2019-03-31T17:38:48.319Z,7.25
2019-03-31T17:41:21.250Z,6.20
2019-03-31T17:43:54.096Z,10.58
2019-03-31T17:46:27.006Z,9.53
2019-03-31T17:49:06.035Z,7.33
2019-03-31T17:51:38.863Z,10.85
2019-03-31T17:54:11.622Z,9.55
2019-03-31T17:56:44.411Z,9.83
2019-03-31T17:59:17.387Z,8.68
2019-03-31T18:01:50.296Z,20.75
2019-03-31T18:04:23.177Z,9.10
2019-03-31T18:06:55.988Z,6.03
2019-03-31T18:09:28.842Z,16.02
2019-03-31T18:12:01.819Z,11.97
2019-03-31T18:14:34.710Z,12.45
2019-03-31T18:17:07.547Z,11.93
2019-03-31T18:19:40.465Z,12.15
2019-03-31T18:22:16.816Z,13.10
2019-03-31T18:24:47.974Z,10.93
2019-03-31T18:27:20.906Z,10.95
2019-03-31T18:29:53.804Z,13.68
2019-03-31T18:32:26.650Z,14.07
2019-03-31T18:34:59.534Z,15.83
2019-03-31T18:37:32.597Z,23.00
2019-03-31T18:40:06.909Z,16.52
2019-03-31T18:42:39.922Z,15.45
2019-03-31T18:45:12.857Z,12.65
2019-03-31T18:47:45.916Z,17.75
2019-03-31T18:50:18.810Z,19.70
2019-03-31T18:52:51.786Z,21.07
2019-03-31T18:55:38.664Z,19.77
2019-03-31T18:58:20.406Z,13.80
2019-03-31T19:01:19.378Z,15.93
2019-03-31T19:04:09.222Z,15.38
2019-03-31T19:07:10.086Z,12.37
2019-03-31T19:10:01.762Z,13.35
2019-03-31T19:13:12.073Z,12.98
2019-03-31T19:16:08.948Z,20.37
2019-03-31T19:19:06.734Z,16.20
2019-03-31T19:22:04.576Z,19.35
2019-03-31T19:24:54.920Z,16.32
2019-03-31T19:27:34.920Z,19.00
2019-03-31T19:30:22.049Z,18.32
2019-03-31T19:33:04.690Z,20.45
2019-03-31T19:36:00.954Z,20.65
2019-03-31T19:38:52.769Z,19.52
2019-03-31T19:41:42.910Z,19.65
2019-03-31T19:44:26.025Z,20.72
2019-03-31T19:47:06.593Z,16.97
2019-03-31T19:49:57.362Z,17.35
2019-03-31T19:52:49.028Z,12.98
2019-03-31T19:56:07.034Z,23.32
2019-03-31T19:58:59.173Z,14.15
2019-03-31T20:01:52.182Z,32.90
2019-03-31T20:04:47.735Z,28.70
2019-03-31T20:07:50.303Z,24.57
2019-03-31T20:10:40.133Z,21.15
2019-03-31T20:13:31.923Z,27.98
2019-03-31T20:16:14.141Z,32.93
2019-03-31T20:19:14.858Z,25.20
2019-03-31T20:21:59.667Z,20.62
2019-03-31T20:24:50.095Z,16.10
2019-03-31T20:27:37.827Z,22.10
2019-03-31T20:30:33.359Z,21.48
2019-03-31T20:33:23.938Z,18.05
2019-03-31T20:36:21.463Z,16.23
2019-03-31T20:39:13.191Z,19.67
2019-03-31T20:41:57.351Z,18.27
2019-03-31T20:44:30.215Z,16.67
2019-03-31T20:47:03.167Z,34.40
2019-03-31T20:49:36.152Z,23.22
2019-03-31T20:52:09.055Z,41.53
2019-03-31T20:54:42.067Z,50.73
2019-03-31T20:57:14.996Z,45.30
2019-03-31T20:59:49.127Z,42.48
2019-03-31T21:02:22.391Z,39.83
2019-03-31T21:04:55.363Z,29.82
2019-03-31T21:07:28.326Z,29.37
2019-03-31T21:10:01.199Z,38.63
2019-03-31T21:12:34.178Z,32.03
2019-03-31T21:15:07.257Z,30.52
2019-03-31T21:17:40.126Z,32.17
2019-03-31T21:20:13.172Z,34.20
2019-03-31T21:22:47.018Z,26.02
2019-03-31T21:25:19.831Z,41.98
2019-03-31T21:27:52.622Z,25.10
2019-03-31T21:30:25.465Z,20.83
2019-03-31T21:32:58.296Z,24.37
2019-03-31T21:35:31.375Z,17.53
2019-03-31T21:38:04.323Z,21.48
2019-03-31T21:40:37.251Z,22.03
2019-03-31T21:43:10.051Z,20.77
2019-03-31T21:45:43.790Z,20.25
2019-03-31T21:48:16.872Z,20.13
2019-03-31T21:50:49.721Z,21.55
2019-03-31T21:53:22.755Z,16.20
2019-03-31T21:55:55.876Z,17.92
2019-03-31T21:58:29.155Z,14.83
2019-03-31T22:01:02.832Z,21.90
2019-03-31T22:03:37.016Z,33.50
2019-03-31T22:06:10.113Z,28.10
2019-03-31T22:08:43.248Z,15.70
2019-03-31T22:11:16.235Z,19.17
2019-03-31T22:13:49.241Z,16.20
2019-03-31T22:16:23.307Z,24.73
2019-03-31T22:18:56.239Z,15.53
2019-03-31T22:21:29.208Z,15.13
2019-03-31T22:24:02.182Z,17.30
2019-03-31T22:26:35.191Z,13.88
2019-03-31T22:29:09.090Z,23.27
2019-03-31T22:31:42.010Z,15.40
2019-03-31T22:34:15.086Z,13.73
2019-03-31T22:36:48.053Z,18.57
2019-03-31T22:39:21.026Z,17.43
2019-03-31T22:41:53.921Z,19.30
2019-03-31T22:44:26.887Z,16.03
2019-03-31T22:46:59.921Z,21.23
2019-03-31T22:49:32.936Z,25.20
2019-03-31T22:52:05.860Z,27.63
2019-03-31T22:54:38.760Z,24.40
2019-03-31T22:57:11.636Z,24.77
2019-03-31T22:59:44.608Z,24.00
2019-03-31T23:02:17.496Z,20.00
2019-03-31T23:04:50.568Z,25.17
2019-03-31T23:07:23.450Z,23.17
2019-03-31T23:09:56.422Z,22.37
2019-03-31T23:12:29.332Z,24.57
2019-03-31T23:15:02.307Z,28.40
2019-03-31T23:17:35.204Z,25.83
2019-03-31T23:20:08.249Z,33.33
2019-03-31T23:22:41.329Z,26.63
2019-03-31T23:25:14.251Z,28.10
2019-03-31T23:27:47.249Z,32.60
2019-03-31T23:30:20.266Z,47.30
2019-03-31T23:32:53.268Z,38.77
2019-03-31T23:35:26.288Z,39.33
2019-03-31T23:37:59.236Z,62.50
2019-03-31T23:40:32.168Z,69.00
2019-03-31T23:43:05.036Z,61.00
2019-03-31T23:45:37.921Z,68.40
2019-03-31T23:48:10.763Z,66.90
2019-03-31T23:50:43.642Z,72.67
2019-03-31T23:53:16.798Z,73.80
2019-03-31T23:55:49.705Z,65.97
2019-03-31T23:58:22.623Z,66.20
